createdAt,value
2023-09-06T00:00:49.403Z,88.21
2023-09-06T00:01:49.455Z,88.41
2023-09-06T00:02:49.398Z,88.71
2023-09-06T00:03:49.500Z,88.21
2023-09-06T00:04:49.663Z,87.41
2023-09-06T00:05:49.365Z,86.90
2023-09-06T00:06:49.451Z,87.01
2023-09-06T00:07:49.376Z,85.90
2023-09-06T00:08:49.389Z,86.40
2023-09-06T00:09:49.394Z,86.85
2023-09-06T00:10:49.374Z,85.53
2023-09-06T00:11:49.387Z,86.34
2023-09-06T00:12:49.487Z,87.08
2023-09-06T00:13:49.382Z,87.29
2023-09-06T00:14:49.384Z,86.88
2023-09-06T00:15:49.420Z,89.00
2023-09-06T00:16:49.439Z,88.59
2023-09-06T00:17:49.425Z,87.69
2023-09-06T00:18:49.429Z,86.93
2023-09-06T00:19:49.407Z,87.43
2023-09-06T00:20:49.391Z,87.67
2023-09-06T00:21:49.440Z,87.57
2023-09-06T00:22:49.401Z,88.62
2023-09-06T00:23:49.392Z,88.12
2023-09-06T00:24:49.412Z,88.16
2023-09-06T00:25:49.403Z,88.66
2023-09-06T00:26:49.396Z,89.17
2023-09-06T00:27:49.442Z,89.61
2023-09-06T00:28:49.398Z,90.72
2023-09-06T00:29:49.398Z,90.82
2023-09-06T00:30:49.490Z,90.42
2023-09-06T00:31:49.432Z,90.92
2023-09-06T00:32:49.419Z,91.02
2023-09-06T00:33:49.488Z,90.72
2023-09-06T00:34:49.412Z,91.83
2023-09-06T00:35:49.514Z,91.83
2023-09-06T00:36:49.468Z,92.43
2023-09-06T00:37:49.409Z,92.03
2023-09-06T00:38:49.413Z,92.03
2023-09-06T00:39:49.461Z,92.03
2023-09-06T00:40:49.411Z,91.83
2023-09-06T00:41:49.414Z,91.78
2023-09-06T00:42:49.440Z,91.78
2023-09-06T00:43:49.408Z,91.18
2023-09-06T00:44:49.418Z,90.58
2023-09-06T00:45:49.586Z,89.77
2023-09-06T00:46:49.456Z,89.57
2023-09-06T00:47:49.558Z,89.11
2023-09-06T00:48:49.467Z,90.48
2023-09-06T00:49:49.415Z,89.81
2023-09-06T00:50:49.422Z,89.11
2023-09-06T00:51:49.501Z,89.65
2023-09-06T00:52:49.436Z,89.35
2023-09-06T00:53:49.459Z,89.75
2023-09-06T00:54:49.477Z,90.10
2023-09-06T00:55:49.422Z,90.10
2023-09-06T00:56:51.624Z,91.01
2023-09-06T00:57:49.490Z,91.21
2023-09-06T00:58:49.432Z,91.91
2023-09-06T00:59:49.428Z,92.06
2023-09-06T01:00:49.538Z,92.26
2023-09-06T01:01:49.580Z,92.46
2023-09-06T01:02:49.493Z,93.37
2023-09-06T01:03:49.574Z,93.63
2023-09-06T01:04:49.429Z,93.63
2023-09-06T01:05:49.429Z,92.66
2023-09-06T01:06:49.508Z,92.66
2023-09-06T01:07:49.457Z,92.06
2023-09-06T01:08:49.435Z,92.26
2023-09-06T01:09:49.467Z,91.66
2023-09-06T01:10:49.437Z,92.12
2023-09-06T01:11:49.448Z,92.22
2023-09-06T01:12:49.581Z,92.16
2023-09-06T01:13:49.436Z,92.26
2023-09-06T01:14:49.438Z,92.32
2023-09-06T01:15:49.505Z,91.15
2023-09-06T01:16:49.504Z,90.95
2023-09-06T01:17:49.505Z,89.54
2023-09-06T01:18:49.480Z,90.24
2023-09-06T01:19:49.456Z,91.30
2023-09-06T01:20:49.443Z,92.30
2023-09-06T01:21:49.515Z,92.81
2023-09-06T01:22:49.442Z,92.81
2023-09-06T01:23:49.553Z,92.71
2023-09-06T01:24:49.453Z,93.46
2023-09-06T01:25:49.448Z,93.26
2023-09-06T01:26:49.450Z,93.52
2023-09-06T01:27:49.590Z,94.17
2023-09-06T01:28:49.608Z,94.12
2023-09-06T01:29:49.448Z,93.66
2023-09-06T01:30:49.598Z,94.17
2023-09-06T01:31:49.530Z,92.91
2023-09-06T01:32:49.483Z,92.81
2023-09-06T01:33:49.511Z,92.41
2023-09-06T01:34:49.476Z,92.14
2023-09-06T01:35:49.455Z,92.35
2023-09-06T01:36:49.511Z,92.61
2023-09-06T01:37:49.452Z,92.25
2023-09-06T01:38:49.458Z,92.21
2023-09-06T01:39:49.504Z,91.70
2023-09-06T01:40:49.458Z,91.14
2023-09-06T01:41:49.458Z,92.05
2023-09-06T01:42:49.461Z,92.55
2023-09-06T01:43:49.499Z,92.60
2023-09-06T01:44:49.472Z,91.08
2023-09-06T01:45:49.528Z,91.53
2023-09-06T01:46:49.519Z,92.24
2023-09-06T01:47:49.610Z,93.04
2023-09-06T01:48:49.499Z,93.95
2023-09-06T01:49:49.473Z,94.15
2023-09-06T01:50:49.498Z,94.15
2023-09-06T01:51:49.503Z,94.36
2023-09-06T01:52:49.502Z,94.66
2023-09-06T01:53:49.463Z,93.85
2023-09-06T01:54:49.493Z,93.79
2023-09-06T01:55:49.504Z,93.59
2023-09-06T01:56:49.468Z,93.85
2023-09-06T01:57:49.488Z,94.30
2023-09-06T01:58:49.467Z,94.06
2023-09-06T01:59:49.476Z,94.46
2023-09-06T02:00:49.513Z,94.40
2023-09-06T02:01:49.562Z,94.46
2023-09-06T02:02:49.551Z,94.71
2023-09-06T02:03:49.670Z,95.27
2023-09-06T02:04:49.475Z,95.21
2023-09-06T02:05:49.472Z,94.36
2023-09-06T02:06:49.497Z,94.71
2023-09-06T02:07:49.472Z,94.66
2023-09-06T02:08:49.474Z,94.81
2023-09-06T02:09:49.512Z,94.40
2023-09-06T02:10:49.471Z,95.07
2023-09-06T02:11:49.540Z,94.76
2023-09-06T02:12:49.529Z,94.86
2023-09-06T02:13:49.490Z,95.27
2023-09-06T02:14:49.471Z,95.27
2023-09-06T02:15:49.548Z,94.46
2023-09-06T02:16:49.476Z,94.46
2023-09-06T02:17:49.525Z,93.55
2023-09-06T02:18:49.494Z,92.64
2023-09-06T02:19:49.512Z,92.64
2023-09-06T02:20:49.477Z,92.44
2023-09-06T02:21:49.508Z,91.87
2023-09-06T02:22:49.478Z,92.18
2023-09-06T02:23:49.480Z,92.38
2023-09-06T02:24:49.506Z,93.39
2023-09-06T02:25:49.479Z,94.30
2023-09-06T02:26:49.478Z,94.20
2023-09-06T02:27:49.552Z,94.40
2023-09-06T02:28:49.483Z,95.01
2023-09-06T02:29:49.487Z,94.81
2023-09-06T02:30:49.482Z,95.11
2023-09-06T02:31:49.615Z,95.31
2023-09-06T02:32:49.537Z,95.31
2023-09-06T02:33:49.485Z,95.21
2023-09-06T02:34:49.479Z,94.60
2023-09-06T02:35:49.481Z,94.40
2023-09-06T02:36:49.538Z,94.71
2023-09-06T02:37:49.481Z,94.46
2023-09-06T02:38:49.479Z,94.10
2023-09-06T02:39:49.484Z,93.90
2023-09-06T02:40:49.479Z,93.59
2023-09-06T02:41:49.481Z,93.08
2023-09-06T02:42:49.559Z,92.18
2023-09-06T02:43:49.502Z,92.58
2023-09-06T02:44:49.510Z,92.12
2023-09-06T02:45:49.500Z,92.42
2023-09-06T02:46:49.529Z,92.42
2023-09-06T02:47:50.084Z,92.57
2023-09-06T02:48:49.481Z,92.97
2023-09-06T02:49:49.498Z,94.39
2023-09-06T02:50:49.507Z,94.95
2023-09-06T02:51:49.493Z,95.36
2023-09-06T02:52:49.482Z,95.15
2023-09-06T02:53:49.484Z,95.46
2023-09-06T02:54:49.548Z,95.26
2023-09-06T02:55:49.488Z,95.66
2023-09-06T02:56:49.504Z,95.46
2023-09-06T02:57:49.511Z,95.36
2023-09-06T02:58:49.500Z,95.15
2023-09-06T02:59:49.508Z,95.61
2023-09-06T03:00:49.512Z,95.36
2023-09-06T03:01:49.524Z,95.15
2023-09-06T03:02:49.569Z,94.35
2023-09-06T03:03:49.666Z,94.55
2023-09-06T03:04:49.483Z,94.59
2023-09-06T03:05:49.490Z,94.39
2023-09-06T03:06:49.525Z,94.39
2023-09-06T03:07:49.491Z,94.90
2023-09-06T03:08:49.488Z,95.40
2023-09-06T03:09:49.519Z,95.61
2023-09-06T03:10:49.489Z,96.01
2023-09-06T03:11:49.493Z,96.01
2023-09-06T03:12:49.562Z,96.17
2023-09-06T03:13:49.494Z,96.67
2023-09-06T03:14:49.489Z,96.47
2023-09-06T03:15:49.658Z,96.37
2023-09-06T03:16:49.531Z,95.92
2023-09-06T03:17:49.524Z,96.33
2023-09-06T03:18:49.487Z,96.33
2023-09-06T03:19:49.489Z,95.42
2023-09-06T03:20:49.486Z,94.71
2023-09-06T03:21:49.540Z,94.71
2023-09-06T03:22:49.585Z,93.08
2023-09-06T03:23:49.636Z,92.48
2023-09-06T03:24:49.488Z,92.18
2023-09-06T03:25:49.496Z,92.08
2023-09-06T03:26:49.505Z,92.22
2023-09-06T03:27:49.499Z,92.83
2023-09-06T03:28:49.553Z,92.63
2023-09-06T03:29:49.494Z,92.93
2023-09-06T03:30:49.498Z,93.43
2023-09-06T03:31:49.778Z,94.14
2023-09-06T03:32:49.529Z,94.04
2023-09-06T03:33:49.494Z,94.65
2023-09-06T03:34:49.490Z,94.55
2023-09-06T03:35:49.498Z,94.45
2023-09-06T03:36:49.488Z,94.35
2023-09-06T03:37:49.589Z,93.84
2023-09-06T03:38:49.486Z,92.42
2023-09-06T03:39:49.492Z,93.23
2023-09-06T03:40:49.556Z,93.18
2023-09-06T03:41:49.487Z,93.68
2023-09-06T03:42:49.487Z,94.09
2023-09-06T03:43:49.542Z,94.64
2023-09-06T03:44:49.490Z,94.74
2023-09-06T03:45:49.491Z,95.04
2023-09-06T03:46:49.555Z,95.86
2023-09-06T03:47:49.684Z,95.75
2023-09-06T03:48:49.545Z,96.26
2023-09-06T03:49:49.497Z,96.56
2023-09-06T03:50:49.494Z,96.92
2023-09-06T03:51:49.489Z,96.72
2023-09-06T03:52:49.574Z,96.31
2023-09-06T03:53:49.487Z,96.06
2023-09-06T03:54:49.485Z,95.35
2023-09-06T03:55:49.505Z,95.45
2023-09-06T03:56:49.491Z,95.45
2023-09-06T03:57:49.489Z,95.75
2023-09-06T03:58:49.490Z,95.40
2023-09-06T03:59:49.490Z,94.84
2023-09-06T04:00:49.495Z,95.04
2023-09-06T04:01:49.601Z,95.35
2023-09-06T04:02:49.657Z,95.00
2023-09-06T04:03:49.700Z,94.64
2023-09-06T04:04:49.585Z,94.84
2023-09-06T04:05:49.494Z,93.73
2023-09-06T04:06:49.485Z,94.13
2023-09-06T04:07:49.615Z,94.54
2023-09-06T04:08:49.670Z,94.54
2023-09-06T04:09:49.495Z,94.74
2023-09-06T04:10:49.488Z,94.74
2023-09-06T04:11:49.489Z,95.14
2023-09-06T04:12:49.528Z,95.45
2023-09-06T04:13:49.487Z,95.65
2023-09-06T04:14:49.521Z,95.55
2023-09-06T04:15:49.492Z,95.45
2023-09-06T04:16:49.524Z,94.94
2023-09-06T04:17:49.569Z,94.98
2023-09-06T04:18:49.533Z,94.64
2023-09-06T04:19:49.598Z,94.58
2023-09-06T04:20:49.486Z,95.39
2023-09-06T04:21:49.494Z,95.25
2023-09-06T04:22:49.531Z,96.26
2023-09-06T04:23:49.489Z,96.36
2023-09-06T04:24:49.487Z,96.46
2023-09-06T04:25:49.547Z,95.65
2023-09-06T04:26:50.356Z,94.94
2023-09-06T04:27:49.516Z,95.45
2023-09-06T04:28:49.500Z,95.25
2023-09-06T04:29:49.494Z,94.94
2023-09-06T04:30:49.593Z,94.94
2023-09-06T04:31:49.518Z,94.68
2023-09-06T04:32:49.521Z,94.27
2023-09-06T04:33:49.500Z,94.89
2023-09-06T04:34:49.517Z,95.29
2023-09-06T04:35:49.537Z,95.09
2023-09-06T04:36:49.483Z,96.00
2023-09-06T04:37:49.498Z,96.77
2023-09-06T04:38:49.510Z,96.56
2023-09-06T04:39:49.488Z,96.91
2023-09-06T04:40:49.507Z,96.87
2023-09-06T04:41:49.484Z,96.46
2023-09-06T04:42:49.493Z,96.46
2023-09-06T04:43:49.590Z,96.06
2023-09-06T04:44:49.482Z,95.75
2023-09-06T04:45:49.486Z,95.86
2023-09-06T04:46:49.530Z,95.75
2023-09-06T04:47:49.511Z,95.95
2023-09-06T04:48:49.525Z,94.94
2023-09-06T04:49:49.485Z,94.74
2023-09-06T04:50:49.551Z,94.89
2023-09-06T04:51:49.514Z,94.58
2023-09-06T04:52:49.485Z,95.29
2023-09-06T04:53:49.481Z,95.79
2023-09-06T04:54:49.484Z,95.50
2023-09-06T04:55:49.483Z,95.75
2023-09-06T04:56:49.524Z,96.26
2023-09-06T04:57:49.496Z,95.79
2023-09-06T04:58:49.489Z,95.59
2023-09-06T04:59:49.504Z,96.06
2023-09-06T05:00:49.538Z,95.59
2023-09-06T05:01:49.481Z,95.29
2023-09-06T05:02:49.546Z,95.14
2023-09-06T05:03:49.563Z,95.70
2023-09-06T05:04:49.494Z,95.50
2023-09-06T05:05:49.574Z,94.98
2023-09-06T05:06:49.479Z,94.89
2023-09-06T05:07:49.509Z,95.19
2023-09-06T05:08:49.479Z,95.09
2023-09-06T05:09:49.481Z,95.70
2023-09-06T05:10:49.481Z,96.00
2023-09-06T05:11:49.476Z,96.61
2023-09-06T05:12:49.480Z,97.32
2023-09-06T05:13:49.538Z,97.11
2023-09-06T05:14:49.492Z,97.27
2023-09-06T05:15:49.477Z,96.36
2023-09-06T05:16:49.524Z,97.07
2023-09-06T05:17:49.526Z,97.07
2023-09-06T05:18:50.526Z,95.75
2023-09-06T05:19:49.478Z,95.59
2023-09-06T05:20:49.481Z,95.14
2023-09-06T05:21:49.491Z,95.04
2023-09-06T05:22:49.512Z,94.78
2023-09-06T05:23:49.505Z,95.09
2023-09-06T05:24:49.491Z,95.45
2023-09-06T05:25:51.519Z,96.56
2023-09-06T05:26:49.470Z,96.66
2023-09-06T05:27:49.537Z,97.07
2023-09-06T05:28:49.480Z,97.63
2023-09-06T05:29:49.475Z,97.73
2023-09-06T05:30:49.550Z,97.58
2023-09-06T05:31:49.652Z,97.53
2023-09-06T05:32:49.705Z,97.73
2023-09-06T05:33:49.510Z,96.62
2023-09-06T05:34:49.476Z,96.01
2023-09-06T05:35:49.477Z,95.30
2023-09-06T05:36:49.474Z,96.22
2023-09-06T05:37:49.516Z,96.31
2023-09-06T05:38:49.494Z,96.92
2023-09-06T05:39:49.496Z,96.78
2023-09-06T05:40:49.624Z,97.08
2023-09-06T05:41:49.470Z,96.98
2023-09-06T05:42:49.470Z,96.47
2023-09-06T05:43:49.559Z,96.37
2023-09-06T05:44:49.471Z,96.63
2023-09-06T05:45:49.488Z,96.73
2023-09-06T05:46:49.547Z,96.93
2023-09-06T05:47:49.553Z,96.22
2023-09-06T05:48:49.468Z,96.73
2023-09-06T05:49:49.504Z,96.27
2023-09-06T05:50:49.466Z,96.42
2023-09-06T05:51:49.477Z,96.33
2023-09-06T05:52:49.467Z,96.83
2023-09-06T05:53:49.511Z,96.63
2023-09-06T05:54:50.745Z,96.83
2023-09-06T05:55:49.534Z,97.08
2023-09-06T05:56:49.473Z,97.54
2023-09-06T05:57:49.478Z,97.64
2023-09-06T05:58:49.491Z,97.54
2023-09-06T05:59:49.499Z,97.44
2023-09-06T06:00:49.470Z,97.54
2023-09-06T06:01:49.553Z,98.20
2023-09-06T06:02:49.585Z,97.80
2023-09-06T06:03:49.497Z,98.05
2023-09-06T06:04:49.504Z,97.69
2023-09-06T06:05:49.498Z,98.10
2023-09-06T06:06:49.479Z,98.00
2023-09-06T06:07:49.478Z,97.90
2023-09-06T06:08:49.535Z,97.90
2023-09-06T06:09:49.470Z,97.80
2023-09-06T06:10:49.517Z,98.05
2023-09-06T06:11:49.493Z,98.16
2023-09-06T06:12:49.472Z,98.05
2023-09-06T06:14:00.355Z,97.85
2023-09-06T06:14:49.466Z,98.36
2023-09-06T06:15:49.536Z,98.46
2023-09-06T06:16:49.513Z,98.46
2023-09-06T06:17:49.545Z,98.41
2023-09-06T06:18:49.475Z,98.51
2023-09-06T06:19:49.572Z,98.51
2023-09-06T06:20:49.569Z,98.11
2023-09-06T06:21:49.586Z,98.61
2023-09-06T06:22:49.668Z,98.11
2023-09-06T06:23:49.671Z,98.01
2023-09-06T06:24:49.785Z,98.87
2023-09-06T06:25:49.723Z,98.67
2023-09-06T06:26:49.466Z,98.41
2023-09-06T06:27:49.691Z,98.87
2023-09-06T06:28:49.608Z,98.36
2023-09-06T06:29:49.537Z,98.87
2023-09-06T06:30:49.474Z,98.47
2023-09-06T06:31:49.576Z,98.72
2023-09-06T06:32:49.570Z,98.02
2023-09-06T06:33:49.471Z,98.82
2023-09-06T06:34:49.467Z,98.72
2023-09-06T06:35:49.502Z,98.11
2023-09-06T06:36:49.476Z,97.91
2023-09-06T06:37:49.475Z,97.91
2023-09-06T06:38:49.466Z,98.27
2023-09-06T06:39:49.466Z,98.11
2023-09-06T06:40:49.515Z,97.97
2023-09-06T06:41:49.487Z,97.87
2023-09-06T06:42:49.471Z,98.02
2023-09-06T06:43:49.583Z,98.07
2023-09-06T06:44:49.472Z,98.17
2023-09-06T06:45:49.511Z,97.77
2023-09-06T06:46:49.511Z,97.16
2023-09-06T06:47:49.562Z,97.27
2023-09-06T06:48:49.471Z,97.27
2023-09-06T06:49:49.489Z,97.67
2023-09-06T06:50:49.474Z,97.92
2023-09-06T06:51:49.477Z,97.82
2023-09-06T06:52:49.492Z,96.71
2023-09-06T06:53:49.470Z,96.71
2023-09-06T06:54:49.493Z,96.67
2023-09-06T06:55:49.510Z,97.02
2023-09-06T06:56:49.471Z,97.58
2023-09-06T06:57:49.471Z,97.17
2023-09-06T06:58:49.492Z,97.47
2023-09-06T06:59:49.554Z,97.47
2023-09-06T07:00:49.548Z,97.03
2023-09-06T07:01:49.498Z,96.92
2023-09-06T07:02:49.548Z,97.03
2023-09-06T07:03:49.535Z,96.72
2023-09-06T07:04:49.483Z,96.01
2023-09-06T07:05:49.478Z,95.51
2023-09-06T07:06:49.500Z,95.77
2023-09-06T07:07:49.513Z,95.77
2023-09-06T07:08:49.479Z,95.77
2023-09-06T07:09:49.477Z,95.53
2023-09-06T07:10:49.526Z,95.32
2023-09-06T07:11:49.480Z,95.62
2023-09-06T07:12:49.484Z,95.02
2023-09-06T07:13:49.506Z,94.42
2023-09-06T07:14:49.485Z,94.52
2023-09-06T07:15:49.742Z,94.21
2023-09-06T07:16:49.646Z,93.77
2023-09-06T07:17:49.579Z,93.66
2023-09-06T07:18:49.488Z,92.26
2023-09-06T07:19:49.530Z,92.26
2023-09-06T07:20:49.485Z,92.32
2023-09-06T07:21:49.485Z,93.73
2023-09-06T07:22:49.518Z,93.32
2023-09-06T07:23:49.492Z,93.62
2023-09-06T07:24:49.492Z,93.48
2023-09-06T07:25:49.521Z,93.58
2023-09-06T07:26:49.493Z,93.88
2023-09-06T07:27:49.501Z,93.88
2023-09-06T07:28:49.510Z,93.88
2023-09-06T07:29:49.511Z,93.33
2023-09-06T07:30:49.631Z,92.93
2023-09-06T07:31:49.532Z,93.23
2023-09-06T07:32:49.532Z,92.53
2023-09-06T07:33:49.494Z,91.93
2023-09-06T07:34:49.501Z,91.72
2023-09-06T07:35:49.497Z,91.58
2023-09-06T07:36:49.498Z,90.42
2023-09-06T07:37:49.503Z,90.22
2023-09-06T07:38:49.508Z,87.87
2023-09-06T07:39:49.503Z,89.07
2023-09-06T07:40:49.499Z,89.83
2023-09-06T07:41:49.543Z,90.73
2023-09-06T07:42:49.500Z,91.74
2023-09-06T07:43:49.502Z,91.14
2023-09-06T07:44:49.508Z,91.03
2023-09-06T07:45:49.505Z,90.59
2023-09-06T07:46:49.658Z,91.60
2023-09-06T07:47:49.711Z,91.60
2023-09-06T07:48:49.656Z,91.60
2023-09-06T07:49:49.507Z,91.89
2023-09-06T07:50:49.517Z,87.08
2023-09-06T07:51:49.505Z,88.68
2023-09-06T07:52:49.513Z,90.15
2023-09-06T07:53:49.570Z,90.05
2023-09-06T07:54:49.518Z,89.45
2023-09-06T07:55:49.526Z,90.25
2023-09-06T07:56:49.519Z,90.45
2023-09-06T07:57:49.531Z,90.15
2023-09-06T07:58:49.520Z,90.35
2023-09-06T07:59:49.516Z,90.00
2023-09-06T08:00:56.445Z,90.20
2023-09-06T08:01:49.569Z,89.81
2023-09-06T08:02:49.557Z,89.90
2023-09-06T08:03:49.671Z,89.90
2023-09-06T08:04:49.596Z,89.90
2023-09-06T08:05:49.630Z,88.40
2023-09-06T08:06:49.658Z,87.70
2023-09-06T08:07:49.530Z,88.36
2023-09-06T08:08:49.781Z,89.16
2023-09-06T08:09:49.535Z,88.56
2023-09-06T08:10:49.536Z,88.26
2023-09-06T08:11:49.615Z,89.36
2023-09-06T08:12:49.544Z,88.42
2023-09-06T08:13:49.541Z,88.66
2023-09-06T08:14:49.601Z,88.76
2023-09-06T08:15:49.552Z,89.82
2023-09-06T08:16:49.553Z,88.62
2023-09-06T08:17:49.609Z,88.32
2023-09-06T08:18:49.607Z,88.52
2023-09-06T08:19:49.565Z,89.92
2023-09-06T08:20:49.588Z,89.72
2023-09-06T08:21:49.551Z,89.18
2023-09-06T08:22:49.570Z,89.68
2023-09-06T08:23:49.570Z,86.98
2023-09-06T08:24:49.563Z,85.87
2023-09-06T08:25:49.557Z,86.47
2023-09-06T08:26:49.638Z,87.23
2023-09-06T08:27:49.566Z,88.13
2023-09-06T08:28:49.575Z,88.13
2023-09-06T08:29:49.635Z,85.23
2023-09-06T08:30:49.634Z,83.39
2023-09-06T08:31:49.733Z,84.99
2023-09-06T08:32:49.605Z,85.19
2023-09-06T08:33:49.659Z,85.75
2023-09-06T08:34:49.571Z,84.85
2023-09-06T08:35:49.609Z,83.45
2023-09-06T08:36:49.574Z,84.35
2023-09-06T08:37:49.578Z,83.21
2023-09-06T08:38:49.578Z,81.92
2023-09-06T08:39:49.668Z,80.32
2023-09-06T08:40:49.583Z,81.98
2023-09-06T08:41:49.633Z,82.01
2023-09-06T08:42:49.591Z,83.91
2023-09-06T08:43:49.588Z,84.61
2023-09-06T08:44:49.590Z,85.61
2023-09-06T08:45:49.590Z,84.41
2023-09-06T08:46:49.644Z,85.01
2023-09-06T08:47:49.731Z,85.31
2023-09-06T08:48:49.723Z,85.41
2023-09-06T08:49:49.597Z,85.11
2023-09-06T08:50:49.604Z,86.01
2023-09-06T08:51:49.767Z,83.35
2023-09-06T08:52:49.609Z,85.11
2023-09-06T08:53:49.611Z,82.21
2023-09-06T08:54:49.642Z,84.11
2023-09-06T08:55:49.611Z,83.81
2023-09-06T08:56:49.611Z,83.81
2023-09-06T08:57:49.616Z,83.21
2023-09-06T08:58:49.616Z,82.05
2023-09-06T08:59:49.623Z,82.01
2023-09-06T09:00:49.698Z,82.21
2023-09-06T09:01:49.676Z,83.01
2023-09-06T09:02:49.692Z,83.21
2023-09-06T09:03:49.784Z,84.81
2023-09-06T09:04:49.681Z,85.81
2023-09-06T09:05:49.632Z,84.51
2023-09-06T09:06:49.674Z,84.11
2023-09-06T09:07:49.681Z,84.41
2023-09-06T09:08:49.635Z,84.21
2023-09-06T09:09:51.015Z,82.41
2023-09-06T09:10:49.637Z,82.21
2023-09-06T09:11:49.640Z,83.71
2023-09-06T09:12:49.667Z,85.07
2023-09-06T09:13:49.649Z,84.67
2023-09-06T09:14:49.643Z,84.47
2023-09-06T09:15:49.687Z,84.77
2023-09-06T09:16:49.693Z,86.07
2023-09-06T09:17:58.697Z,86.51
2023-09-06T09:18:49.805Z,85.57
2023-09-06T09:19:49.652Z,83.67
2023-09-06T09:20:49.664Z,82.87
2023-09-06T09:21:49.657Z,82.17
2023-09-06T09:22:49.751Z,83.97
2023-09-06T09:23:49.707Z,84.27
2023-09-06T09:24:49.704Z,83.77
2023-09-06T09:25:49.663Z,83.07
2023-09-06T09:26:49.665Z,83.47
2023-09-06T09:27:49.691Z,82.37
2023-09-06T09:28:49.672Z,82.37
2023-09-06T09:29:49.672Z,83.27
2023-09-06T09:30:49.740Z,82.28
2023-09-06T09:31:49.674Z,83.17
2023-09-06T09:32:49.789Z,84.67
2023-09-06T09:33:49.773Z,83.47
2023-09-06T09:34:49.682Z,80.32
2023-09-06T09:35:49.717Z,82.07
2023-09-06T09:36:49.687Z,82.37
2023-09-06T09:37:49.688Z,84.27
2023-09-06T09:38:49.716Z,82.41
2023-09-06T09:39:49.748Z,83.97
2023-09-06T09:40:53.144Z,84.87
2023-09-06T09:41:58.845Z,84.27
2023-09-06T09:42:49.699Z,84.61
2023-09-06T09:43:49.697Z,84.47
2023-09-06T09:44:49.702Z,84.27
2023-09-06T09:45:49.799Z,85.07
2023-09-06T09:46:49.716Z,85.21
2023-09-06T09:47:54.062Z,85.87
2023-09-06T09:48:49.713Z,83.61
2023-09-06T09:49:49.743Z,82.61
2023-09-06T09:50:49.717Z,82.01
2023-09-06T09:51:49.714Z,83.51
2023-09-06T09:52:49.730Z,82.41
2023-09-06T09:53:49.722Z,83.61
2023-09-06T09:54:49.729Z,82.71
2023-09-06T09:55:49.763Z,84.01
2023-09-06T09:56:49.728Z,81.12
2023-09-06T09:57:49.725Z,82.81
2023-09-06T09:58:49.736Z,82.61
2023-09-06T09:59:49.843Z,80.51
2023-09-06T10:00:49.764Z,80.32
2023-09-06T10:01:49.778Z,82.11
2023-09-06T10:02:49.787Z,82.41
2023-09-06T10:03:49.844Z,84.41
2023-09-06T10:04:49.950Z,82.31
2023-09-06T10:05:49.748Z,83.41
2023-09-06T10:06:49.811Z,83.81
2023-09-06T10:07:50.236Z,83.61
2023-09-06T10:08:49.776Z,82.61
2023-09-06T10:09:49.771Z,82.71
2023-09-06T10:10:49.759Z,80.32
2023-09-06T10:11:49.775Z,81.21
2023-09-06T10:12:49.761Z,80.02
2023-09-06T10:13:49.766Z,82.51
2023-09-06T10:14:49.761Z,82.31
2023-09-06T10:15:49.833Z,82.01
2023-09-06T10:16:49.807Z,84.81
2023-09-06T10:17:49.824Z,80.51
2023-09-06T10:18:49.783Z,77.51
2023-09-06T10:19:54.720Z,78.61
2023-09-06T10:20:49.788Z,80.27
2023-09-06T10:21:49.787Z,78.58
2023-09-06T10:22:49.793Z,78.12
2023-09-06T10:23:49.777Z,79.38
2023-09-06T10:24:49.838Z,78.98
2023-09-06T10:25:49.784Z,79.04
2023-09-06T10:26:49.932Z,79.78
2023-09-06T10:27:49.867Z,80.44
2023-09-06T10:28:49.795Z,79.64
2023-09-06T10:30:03.446Z,81.43
2023-09-06T10:30:50.299Z,78.44
2023-09-06T10:31:49.813Z,76.65
2023-09-06T10:32:49.843Z,77.34
2023-09-06T10:33:49.807Z,76.25
2023-09-06T10:34:49.804Z,75.31
2023-09-06T10:35:49.820Z,75.21
2023-09-06T10:36:49.835Z,74.02
2023-09-06T10:37:49.820Z,75.91
2023-09-06T10:38:49.815Z,77.81
2023-09-06T10:39:49.838Z,77.47
2023-09-06T10:40:49.827Z,73.61
2023-09-06T10:41:49.816Z,76.01
2023-09-06T10:42:49.823Z,74.32
2023-09-06T10:43:49.844Z,73.68
2023-09-06T10:44:49.856Z,73.98
2023-09-06T10:45:49.902Z,72.19
2023-09-06T10:46:50.042Z,74.38
2023-09-06T10:47:49.863Z,73.08
2023-09-06T10:48:49.860Z,74.18
2023-09-06T10:49:49.840Z,76.67
2023-09-06T10:50:49.841Z,77.37
2023-09-06T10:51:49.877Z,74.68
2023-09-06T10:52:49.857Z,72.08
2023-09-06T10:53:49.844Z,74.77
2023-09-06T10:54:49.899Z,72.88
2023-09-06T10:55:49.958Z,72.98
2023-09-06T10:56:49.853Z,70.56
2023-09-06T10:57:49.858Z,73.05
2023-09-06T10:58:49.862Z,74.04
2023-09-06T10:59:50.017Z,73.74
2023-09-06T11:00:49.865Z,76.54
2023-09-06T11:01:56.098Z,74.34
2023-09-06T11:02:49.985Z,75.34
2023-09-06T11:03:49.890Z,75.74
2023-09-06T11:04:49.941Z,74.15
2023-09-06T11:05:49.880Z,73.05
2023-09-06T11:06:49.916Z,75.94
2023-09-06T11:07:51.222Z,75.94
2023-09-06T11:08:49.885Z,76.14
2023-09-06T11:09:49.885Z,75.24
2023-09-06T11:10:49.881Z,74.94
2023-09-06T11:11:49.887Z,74.94
2023-09-06T11:12:49.904Z,75.24
2023-09-06T11:13:49.892Z,74.04
2023-09-06T11:14:49.907Z,74.34
2023-09-06T11:15:50.085Z,74.54
2023-09-06T11:16:49.901Z,75.94
2023-09-06T11:17:49.944Z,76.34
2023-09-06T11:18:49.899Z,74.04
2023-09-06T11:19:49.920Z,75.14
2023-09-06T11:20:49.959Z,73.14
2023-09-06T11:21:49.912Z,75.04
2023-09-06T11:22:49.936Z,76.83
2023-09-06T11:23:49.929Z,76.14
2023-09-06T11:24:49.967Z,74.24
2023-09-06T11:25:49.940Z,73.44
2023-09-06T11:26:49.927Z,74.94
2023-09-06T11:27:49.927Z,74.84
2023-09-06T11:28:49.968Z,77.23
2023-09-06T11:29:49.933Z,76.54
2023-09-06T11:30:49.942Z,77.13
2023-09-06T11:31:49.977Z,75.84
2023-09-06T11:32:49.951Z,73.94
2023-09-06T11:33:49.964Z,75.44
2023-09-06T11:34:49.945Z,75.34
2023-09-06T11:35:49.966Z,76.17
2023-09-06T11:36:49.999Z,73.78
2023-09-06T11:37:49.950Z,75.67
2023-09-06T11:38:49.950Z,75.64
2023-09-06T11:39:50.015Z,76.24
2023-09-06T11:40:49.961Z,76.04
2023-09-06T11:41:49.967Z,75.74
2023-09-06T11:42:50.532Z,76.54
2023-09-06T11:43:49.966Z,77.33
2023-09-06T11:44:49.967Z,78.23
2023-09-06T11:45:49.975Z,74.74
2023-09-06T11:46:50.348Z,73.05
2023-09-06T11:47:50.213Z,73.81
2023-09-06T11:48:49.986Z,74.41
2023-09-06T11:49:50.014Z,71.51
2023-09-06T11:50:49.983Z,72.81
2023-09-06T11:51:49.984Z,74.80
2023-09-06T11:52:57.879Z,75.20
2023-09-06T11:53:49.991Z,75.31
2023-09-06T11:54:49.991Z,74.01
2023-09-06T11:55:50.012Z,73.81
2023-09-06T11:56:50.005Z,74.80
2023-09-06T11:57:50.011Z,72.02
2023-09-06T11:58:50.014Z,73.81
2023-09-06T11:59:50.019Z,75.31
2023-09-06T12:00:50.070Z,75.20
2023-09-06T12:01:50.049Z,71.12
2023-09-06T12:02:50.031Z,74.21
2023-09-06T12:03:50.331Z,72.11
2023-09-06T12:04:50.017Z,72.91
2023-09-06T12:05:51.612Z,74.71
2023-09-06T12:06:50.083Z,73.61
2023-09-06T12:07:50.022Z,73.41
2023-09-06T12:08:50.073Z,73.81
2023-09-06T12:09:50.039Z,74.01
2023-09-06T12:10:50.032Z,74.21
2023-09-06T12:11:50.079Z,72.55
2023-09-06T12:12:50.041Z,73.81
2023-09-06T12:13:50.041Z,74.04
2023-09-06T12:14:50.162Z,72.05
2023-09-06T12:15:50.046Z,72.95
2023-09-06T12:16:50.091Z,71.51
2023-09-06T12:17:50.156Z,72.52
2023-09-06T12:18:50.132Z,73.51
2023-09-06T12:19:50.080Z,74.11
2023-09-06T12:20:50.102Z,74.30
2023-09-06T12:21:50.064Z,74.21
2023-09-06T12:22:50.061Z,74.01
2023-09-06T12:23:50.094Z,74.21
2023-09-06T12:24:50.072Z,75.50
2023-09-06T12:25:50.071Z,75.01
2023-09-06T12:26:50.194Z,75.80
2023-09-06T12:27:50.096Z,76.14
2023-09-06T12:28:50.148Z,74.60
2023-09-06T12:29:50.111Z,72.15
2023-09-06T12:30:50.094Z,74.15
2023-09-06T12:31:50.087Z,73.85
2023-09-06T12:32:50.225Z,74.54
2023-09-06T12:33:50.145Z,75.24
2023-09-06T12:34:50.104Z,74.64
2023-09-06T12:35:50.266Z,70.65
2023-09-06T12:36:50.103Z,73.44
2023-09-06T12:37:50.111Z,75.34
2023-09-06T12:38:50.115Z,76.93
2023-09-06T12:39:50.115Z,75.64
2023-09-06T12:40:50.111Z,72.15
2023-09-06T12:41:50.181Z,73.44
2023-09-06T12:42:50.127Z,72.05
2023-09-06T12:43:50.138Z,73.05
2023-09-06T12:44:50.145Z,73.85
2023-09-06T12:45:50.137Z,76.83
2023-09-06T12:46:50.190Z,75.44
2023-09-06T12:47:50.247Z,75.04
2023-09-06T12:48:50.304Z,73.65
2023-09-06T12:49:50.146Z,70.65
2023-09-06T12:50:50.165Z,72.45
2023-09-06T12:51:50.180Z,73.31
2023-09-06T12:52:50.149Z,75.04